Retz, Austria
Current Conditions -  °F | °C
As of 7:00 AM on Thursday 23 Oct 2014 (Local Time) from LKNA Reporting Station
Overcast Overcast  
Wind Chill: 39°   Ceiling: 2400
Heat Index: 46°   Visibility: 6mi
Dew Point: 46°   Wind: 17mph
Humidity: 100%   Direction: 360°N
Pressure: 29.74"   Gusts: NA
Location:  48.76°N, 15.95°E
Report Text: LKNA 230500Z 36015KT 9999 FEW011 SCT016 OVC024 08/08 Q1007 NOSIG
Loading
Personal Weather Stations






























Interactive Weather Map
Tropical Storm Tracking
New forecast layout! Learn more

10-Day Weather Forecast

Advertisements
Track Severe Weather on mobile